Time;durP1;ratioP1;P1;durP2;ratioP2;P2;SDS_P1;SDS_P2;PMS_P1;PMS_P2;Temp;Humidity;BMP_temperature;BMP_pressure;BME280_temperature;BME280_humidity;BME280_pressure;Samples;Min_cycle;Max_cycle;Signal;HPM_P1;HPM_P2
2021/06/02 00:02:06;;;;;;;0.80;0.50;;;16.70;99.90;;;;;;4992729;28;20449;-80
2021/06/02 00:04:34;;;;;;;0.80;0.50;;;16.70;99.90;;;;;;5022988;28;20431;-79
2021/06/02 00:07:02;;;;;;;0.80;0.50;;;16.60;99.90;;;;;;5020162;28;20244;-79
2021/06/02 00:09:28;;;;;;;0.80;0.50;;;16.60;99.90;;;;;;5009316;28;20498;-79
2021/06/02 00:11:58;;;;;;;0.80;0.50;;;16.60;99.90;;;;;;5001906;28;20440;-79
2021/06/02 00:14:26;;;;;;;0.80;0.50;;;16.60;99.90;;;;;;5003009;28;20435;-79
2021/06/02 00:16:54;;;;;;;1.23;1.13;;;16.50;99.90;;;;;;4994999;28;20427;-79
2021/06/02 00:19:20;;;;;;;0.80;0.50;;;16.50;99.90;;;;;;5011257;28;20480;-79
2021/06/02 00:21:46;;;;;;;0.80;0.60;;;16.50;99.90;;;;;;5002418;28;20458;-79
2021/06/02 00:24:11;;;;;;;0.80;0.50;;;16.50;99.90;;;;;;5014672;28;20489;-80
2021/06/02 00:26:38;;;;;;;0.80;0.50;;;16.40;99.90;;;;;;4997902;28;20180;-79
2021/06/02 00:29:05;;;;;;;0.80;0.50;;;16.40;99.90;;;;;;4998455;28;20200;-79
2021/06/02 00:31:32;;;;;;;0.80;0.50;;;16.30;99.90;;;;;;4998287;28;20442;-79
2021/06/02 00:33:59;;;;;;;0.77;0.50;;;16.30;99.90;;;;;;5005008;28;20435;-79
2021/06/02 00:36:26;;;;;;;0.80;0.50;;;16.20;99.90;;;;;;5026620;28;20523;-79
2021/06/02 00:38:53;;;;;;;1.73;0.80;;;16.20;99.90;;;;;;5010735;28;20444;-78
2021/06/02 00:41:19;;;;;;;0.80;0.50;;;16.20;99.90;;;;;;5000386;28;20426;-78
2021/06/02 00:43:46;;;;;;;0.80;0.50;;;16.10;99.90;;;;;;5001039;28;20919;-79
2021/06/02 00:46:13;;;;;;;0.80;0.50;;;16.10;99.90;;;;;;5002655;28;20427;-80
2021/06/02 00:48:41;;;;;;;0.73;0.50;;;16.00;99.90;;;;;;5001245;28;20447;-80
2021/06/02 00:51:06;;;;;;;0.70;0.50;;;16.00;99.90;;;;;;5018627;28;20979;-80
2021/06/02 00:53:34;;;;;;;0.93;0.83;;;15.90;99.90;;;;;;5000974;28;20442;-80
2021/06/02 00:56:05;;;;;;;1.00;0.87;;;15.90;99.90;;;;;;5001162;28;20173;-80
2021/06/02 00:58:50;;;;;;;0.80;0.50;;;15.80;99.90;;;;;;5018819;28;20541;-79
2021/06/02 01:01:16;;;;;;;0.80;0.50;;;15.80;99.90;;;;;;5001037;28;20422;-79
2021/06/02 01:03:42;;;;;;;0.80;0.50;;;15.70;99.90;;;;;;5021507;28;20445;-80
2021/06/02 01:06:08;;;;;;;0.80;0.50;;;15.70;99.90;;;;;;5001086;28;20937;-80
2021/06/02 01:08:36;;;;;;;0.80;0.60;;;15.60;99.90;;;;;;5000498;28;20218;-80
2021/06/02 01:11:03;;;;;;;0.80;0.60;;;15.60;99.90;;;;;;4999788;28;20458;-80
2021/06/02 01:13:29;;;;;;;0.70;0.50;;;15.50;99.90;;;;;;5003982;28;20481;-79
2021/06/02 01:15:55;;;;;;;0.80;0.50;;;15.50;99.90;;;;;;5009801;28;20438;-80
2021/06/02 01:18:21;;;;;;;0.70;0.50;;;15.50;99.90;;;;;;4999629;28;20455;-79
2021/06/02 01:20:50;;;;;;;0.90;0.70;;;15.50;99.90;;;;;;5001412;28;20533;-79
2021/06/02 01:23:16;;;;;;;0.80;0.50;;;15.40;99.90;;;;;;5010130;28;20499;-79
2021/06/02 01:25:43;;;;;;;0.80;0.50;;;15.40;99.90;;;;;;5010475;28;20442;-80
2021/06/02 01:28:10;;;;;;;0.80;0.50;;;15.30;99.90;;;;;;5000095;28;20506;-79
2021/06/02 01:30:36;;;;;;;0.80;0.50;;;15.20;99.90;;;;;;5017341;28;20459;-79
2021/06/02 01:33:35;;;;;;;0.73;0.50;;;15.20;99.90;;;;;;4994464;28;20474;-80
2021/06/02 01:36:09;;;;;;;0.80;0.50;;;15.10;99.90;;;;;;5014078;28;20454;-80
2021/06/02 01:39:02;;;;;;;0.83;0.67;;;15.10;99.90;;;;;;5011371;28;20505;-80
2021/06/02 01:41:48;;;;;;;0.80;0.50;;;15.00;99.90;;;;;;5008764;28;20490;-79
2021/06/02 01:44:38;;;;;;;0.80;0.67;;;15.00;99.90;;;;;;5015650;28;20948;-79
2021/06/02 01:47:40;;;;;;;0.70;0.50;;;14.90;99.90;;;;;;5021993;28;20498;-79
2021/06/02 01:50:09;;;;;;;0.70;0.50;;;14.90;99.90;;;;;;5000666;28;20609;-79
2021/06/02 01:53:05;;;;;;;0.80;0.50;;;14.90;99.90;;;;;;5004877;28;20554;-79
2021/06/02 01:55:52;;;;;;;0.80;0.60;;;15.00;99.90;;;;;;5019084;28;20427;-79
2021/06/02 01:58:18;;;;;;;0.70;0.50;;;15.00;99.90;;;;;;5016611;28;20485;-79
2021/06/02 02:01:21;;;;;;;0.70;0.50;;;15.00;99.90;;;;;;5006735;28;20435;-78
2021/06/02 02:04:02;;;;;;;0.80;0.50;;;15.00;99.90;;;;;;5002562;28;20188;-79
2021/06/02 02:07:05;;;;;;;0.70;0.50;;;15.00;99.90;;;;;;5002186;28;20438;-78
2021/06/02 02:09:44;;;;;;;0.70;0.50;;;15.00;99.90;;;;;;5018049;28;20459;-78
2021/06/02 02:12:36;;;;;;;0.80;0.50;;;14.90;99.90;;;;;;5003718;28;20546;-79
2021/06/02 02:15:33;;;;;;;0.70;0.50;;;14.90;99.90;;;;;;4991855;28;20415;-79
2021/06/02 02:18:29;;;;;;;0.70;0.50;;;14.90;99.90;;;;;;5005217;28;20515;-79
2021/06/02 02:21:27;;;;;;;0.80;0.50;;;14.80;99.90;;;;;;5016075;28;20442;-79
2021/06/02 02:24:01;;;;;;;0.80;0.70;;;14.80;99.90;;;;;;5020947;28;20419;-79
2021/06/02 02:26:56;;;;;;;0.80;0.50;;;14.80;99.90;;;;;;4998628;28;20427;-79
2021/06/02 02:29:43;;;;;;;0.70;0.50;;;14.80;99.90;;;;;;5016556;28;20462;-79
2021/06/02 02:32:43;;;;;;;0.73;0.50;;;14.80;99.90;;;;;;4995379;28;20423;-80
2021/06/02 02:35:28;;;;;;;0.80;0.60;;;14.80;99.90;;;;;;5013728;28;20435;-80
2021/06/02 02:38:15;;;;;;;0.70;0.50;;;14.70;99.90;;;;;;4998593;28;20427;-80
2021/06/02 02:40:50;;;;;;;0.70;0.50;;;14.70;99.90;;;;;;4996390;28;20426;-78
2021/06/02 02:43:55;;;;;;;0.70;0.50;;;14.70;99.90;;;;;;5005082;28;20454;-78
2021/06/02 02:46:32;;;;;;;0.70;0.50;;;14.70;99.90;;;;;;5007963;28;20951;-79
2021/06/02 02:49:03;;;;;;;0.70;0.60;;;14.60;99.90;;;;;;5010304;28;20454;-79
2021/06/02 02:51:31;;;;;;;0.80;0.63;;;14.50;99.90;;;;;;4999077;28;20459;-79
2021/06/02 02:54:17;;;;;;;0.70;0.50;;;14.50;99.90;;;;;;4999146;28;20832;-79
2021/06/02 02:56:53;;;;;;;0.70;0.50;;;14.50;99.90;;;;;;5015303;28;20510;-79
2021/06/02 02:59:46;;;;;;;0.70;0.50;;;14.60;99.90;;;;;;5014392;28;20466;-79
2021/06/02 03:02:32;;;;;;;0.70;0.50;;;14.60;99.90;;;;;;5016504;28;20955;-79
2021/06/02 03:05:00;;;;;;;0.80;0.50;;;14.50;99.90;;;;;;5020226;28;20501;-79
2021/06/02 03:07:31;;;;;;;0.70;0.50;;;14.50;99.90;;;;;;5018465;28;20435;-79
2021/06/02 03:10:08;;;;;;;0.70;0.50;;;14.50;99.90;;;;;;5019848;28;20455;-79
2021/06/02 03:12:42;;;;;;;0.70;0.50;;;14.40;99.90;;;;;;5013626;28;20892;-80
2021/06/02 03:15:32;;;;;;;0.70;0.50;;;14.40;99.90;;;;;;4996916;28;20467;-80
2021/06/02 03:18:38;;;;;;;0.80;0.50;;;14.40;99.90;;;;;;4985640;28;20553;-79
2021/06/02 03:21:24;;;;;;;0.70;0.50;;;14.30;99.90;;;;;;5013603;28;20427;-80
2021/06/02 03:24:17;;;;;;;0.70;0.50;;;14.20;99.90;;;;;;4995514;28;20428;-80
2021/06/02 03:26:58;;;;;;;0.70;0.50;;;14.10;99.90;;;;;;5001869;28;20419;-80
2021/06/02 03:29:23;;;;;;;0.73;0.50;;;14.00;99.90;;;;;;4999129;28;20461;-78
2021/06/02 03:31:59;;;;;;;0.80;0.50;;;14.00;99.90;;;;;;4999844;28;20431;-79
2021/06/02 03:34:42;;;;;;;0.70;0.50;;;14.00;99.90;;;;;;4996155;28;20172;-79
2021/06/02 03:37:23;;;;;;;0.73;0.50;;;14.10;99.90;;;;;;5001549;28;20474;-79
2021/06/02 03:39:54;;;;;;;0.80;0.50;;;14.10;99.90;;;;;;4998685;28;20482;-79
2021/06/02 03:42:54;;;;;;;0.70;0.50;;;14.20;99.90;;;;;;5014801;28;20431;-79
2021/06/02 03:45:46;;;;;;;1.27;0.87;;;14.20;99.90;;;;;;5008491;28;20452;-78
2021/06/02 03:48:30;;;;;;;0.70;0.50;;;14.20;99.90;;;;;;5017705;28;20450;-79
2021/06/02 03:51:01;;;;;;;0.80;0.50;;;14.20;99.90;;;;;;5019744;28;20534;-79
2021/06/02 03:53:48;;;;;;;0.70;0.50;;;14.20;99.90;;;;;;5019486;28;20431;-79
2021/06/02 03:56:28;;;;;;;0.70;0.50;;;14.20;99.90;;;;;;4996986;28;20525;-80
2021/06/02 03:59:06;;;;;;;0.70;0.50;;;14.10;99.90;;;;;;5014548;28;20459;-79
2021/06/02 04:01:50;;;;;;;0.77;0.60;;;14.10;99.90;;;;;;5020869;28;20453;-79
2021/06/02 04:04:32;;;;;;;0.70;0.50;;;14.00;99.90;;;;;;4997393;28;20970;-80
2021/06/02 04:07:11;;;;;;;0.70;0.50;;;14.00;99.90;;;;;;4997727;28;20411;-81
2021/06/02 04:09:52;;;;;;;0.70;0.60;;;14.00;99.90;;;;;;5013633;28;20894;-81
2021/06/02 04:12:56;;;;;;;0.70;0.50;;;14.10;99.90;;;;;;4997294;28;20518;-80
2021/06/02 04:15:23;;;;;;;0.70;0.50;;;14.00;99.90;;;;;;4997126;28;20952;-81
2021/06/02 04:17:50;;;;;;;1.07;0.97;;;14.10;99.90;;;;;;5013495;28;20434;-81
2021/06/02 04:20:18;;;;;;;0.70;0.50;;;14.10;99.90;;;;;;5012904;28;21115;-81
2021/06/02 04:22:47;;;;;;;0.70;0.50;;;14.10;99.90;;;;;;4998086;28;20450;-80
2021/06/02 04:25:14;;;;;;;0.70;0.50;;;14.20;99.90;;;;;;4998856;28;20434;-81
2021/06/02 04:27:40;;;;;;;0.70;0.50;;;14.20;99.90;;;;;;5013140;28;20435;-80
2021/06/02 04:30:07;;;;;;;0.70;0.50;;;14.30;99.90;;;;;;5012345;28;20462;-81
2021/06/02 04:32:44;;;;;;;0.70;0.50;;;14.30;99.90;;;;;;5005905;28;20175;-80
2021/06/02 04:35:13;;;;;;;1.00;0.70;;;14.30;99.90;;;;;;5010865;28;20490;-80
2021/06/02 04:37:40;;;;;;;0.70;0.50;;;14.40;99.90;;;;;;5002908;28;20404;-80
2021/06/02 04:40:07;;;;;;;0.70;0.50;;;14.40;99.90;;;;;;5011211;28;20870;-80
2021/06/02 04:42:38;;;;;;;1.07;0.93;;;14.50;99.90;;;;;;5010018;28;20485;-80
2021/06/02 04:45:05;;;;;;;0.70;0.50;;;14.50;99.90;;;;;;4994395;28;20839;-80
2021/06/02 04:47:33;;;;;;;0.80;0.50;;;14.60;99.90;;;;;;5002652;28;20431;-80
2021/06/02 04:50:18;;;;;;;0.70;0.50;;;14.70;99.90;;;;;;4999522;28;20496;-79
2021/06/02 04:53:21;;;;;;;0.70;0.50;;;14.70;99.90;;;;;;5009427;28;20432;-80
2021/06/02 04:56:03;;;;;;;0.70;0.50;;;14.70;99.90;;;;;;5004168;28;20442;-80
2021/06/02 04:58:54;;;;;;;0.70;0.50;;;14.80;99.90;;;;;;5011347;28;20470;-80
2021/06/02 05:01:35;;;;;;;5.03;1.57;;;15.00;99.90;;;;;;5001337;28;20492;-80
2021/06/02 05:04:32;;;;;;;1.20;0.80;;;15.10;99.90;;;;;;4996372;28;20442;-80
2021/06/02 05:07:31;;;;;;;0.70;0.50;;;15.20;99.90;;;;;;5014931;28;20423;-80
2021/06/02 05:10:32;;;;;;;0.70;0.50;;;15.40;99.90;;;;;;5017833;28;21221;-78
2021/06/02 05:13:39;;;;;;;0.70;0.50;;;15.50;99.90;;;;;;5023253;28;20435;-78
2021/06/02 05:16:28;;;;;;;0.70;0.50;;;15.50;99.90;;;;;;5006462;28;20442;-79
2021/06/02 05:18:58;;;;;;;0.77;0.50;;;15.70;99.90;;;;;;5023903;28;20477;-78
2021/06/02 05:25:02;;;;;;;1.77;1.67;;;15.80;99.90;;;;;;5023290;28;20457;-79
2021/06/02 05:27:49;;;;;;;0.70;0.50;;;16.00;99.90;;;;;;4993396;28;20458;-78
2021/06/02 05:30:27;;;;;;;0.70;0.60;;;16.20;99.90;;;;;;4998684;28;20458;-79
2021/06/02 05:33:12;;;;;;;0.70;0.50;;;16.30;99.90;;;;;;5009730;28;20439;-79
2021/06/02 05:36:23;;;;;;;0.80;0.50;;;16.40;99.90;;;;;;4985652;28;20810;-79
2021/06/02 05:38:57;;;;;;;0.80;0.73;;;16.50;99.90;;;;;;5019646;28;20538;-79
2021/06/02 05:41:46;;;;;;;0.80;0.50;;;16.60;99.90;;;;;;5012645;28;21001;-79
2021/06/02 05:44:49;;;;;;;0.77;0.50;;;16.70;99.90;;;;;;5031055;28;20441;-79
2021/06/02 05:47:49;;;;;;;0.90;0.77;;;17.00;99.90;;;;;;5014857;28;20427;-81
2021/06/02 05:50:31;;;;;;;0.77;0.50;;;17.10;99.90;;;;;;5014512;28;20463;-80
2021/06/02 05:53:34;;;;;;;1.63;0.73;;;17.10;99.90;;;;;;5030621;28;20431;-80
2021/06/02 05:56:53;;;;;;;1.00;0.70;;;17.40;99.90;;;;;;5031026;28;20403;-80
2021/06/02 05:59:22;;;;;;;0.80;0.50;;;17.70;99.90;;;;;;5013869;28;20471;-81
2021/06/02 06:02:32;;;;;;;0.80;0.50;;;17.80;99.90;;;;;;5014550;28;20421;-81
2021/06/02 06:05:24;;;;;;;0.80;0.60;;;18.10;99.90;;;;;;5014718;28;20818;-80
2021/06/02 06:08:18;;;;;;;0.80;0.50;;;18.40;99.90;;;;;;5014474;28;20441;-81
2021/06/02 06:11:19;;;;;;;0.80;0.50;;;18.80;99.90;;;;;;5010454;28;20449;-82
2021/06/02 06:14:39;;;;;;;0.80;0.50;;;19.10;99.90;;;;;;5003843;28;20431;-81
2021/06/02 06:17:13;;;;;;;0.80;0.50;;;19.30;99.90;;;;;;4975213;28;20417;-81
2021/06/02 06:20:20;;;;;;;0.80;0.50;;;19.80;99.90;;;;;;4989151;28;20520;-82
2021/06/02 06:22:53;;;;;;;0.80;0.50;;;20.10;99.90;;;;;;5015667;28;20443;-82
2021/06/02 06:25:25;;;;;;;0.80;0.50;;;20.30;99.90;;;;;;5028948;28;20427;-82
2021/06/02 06:27:55;;;;;;;0.80;0.70;;;20.50;99.90;;;;;;5013093;28;20466;-82
2021/06/02 06:30:28;;;;;;;0.80;0.50;;;20.80;99.90;;;;;;5013339;28;20454;-82
2021/06/02 06:32:56;;;;;;;0.80;0.50;;;21.00;99.90;;;;;;5025702;28;20442;-80
2021/06/02 06:35:22;;;;;;;2.03;0.77;;;21.30;99.90;;;;;;5011666;28;20461;-82
2021/06/02 06:37:50;;;;;;;1.00;0.70;;;21.50;99.90;;;;;;5014338;28;20426;-82
2021/06/02 06:40:21;;;;;;;0.80;0.50;;;21.70;99.90;;;;;;5013966;28;20419;-83
2021/06/02 06:42:51;;;;;;;0.80;0.50;;;21.90;99.90;;;;;;5013237;28;20485;-81
2021/06/02 06:45:33;;;;;;;0.93;0.77;;;22.00;99.90;;;;;;5031037;28;20502;-82
2021/06/02 06:48:01;;;;;;;0.90;0.80;;;22.30;99.90;;;;;;5012055;28;20438;-82
2021/06/02 06:50:27;;;;;;;0.80;0.50;;;22.50;99.90;;;;;;5010625;28;20476;-82
2021/06/02 06:53:00;;;;;;;2.20;1.43;;;22.90;99.90;;;;;;5001761;28;20436;-81
2021/06/02 06:55:27;;;;;;;1.23;1.03;;;22.90;99.90;;;;;;5011241;28;20520;-83
2021/06/02 06:57:53;;;;;;;0.90;0.70;;;22.80;99.90;;;;;;5017649;28;20439;-83
2021/06/02 07:00:20;;;;;;;1.10;0.90;;;23.10;99.90;;;;;;5010046;28;20908;-82
2021/06/02 07:02:46;;;;;;;0.80;0.60;;;23.20;99.90;;;;;;5012490;28;20439;-82
2021/06/02 07:05:13;;;;;;;0.90;0.60;;;23.40;99.90;;;;;;5012924;28;20435;-84
2021/06/02 07:07:41;;;;;;;0.80;0.50;;;23.60;99.90;;;;;;5008798;28;20431;-82
2021/06/02 07:10:08;;;;;;;0.80;0.60;;;23.30;99.90;;;;;;5004515;28;20459;-84
2021/06/02 07:12:36;;;;;;;0.80;0.50;;;23.70;99.90;;;;;;5002235;28;20915;-82
2021/06/02 07:15:05;;;;;;;0.80;0.50;;;24.00;99.90;;;;;;5010669;28;20431;-83
2021/06/02 07:17:31;;;;;;;0.80;0.50;;;24.00;99.90;;;;;;5001492;28;20435;-83
2021/06/02 07:20:02;;;;;;;1.00;0.80;;;24.00;99.90;;;;;;5028306;28;20928;-82
2021/06/02 07:22:29;;;;;;;0.80;0.50;;;23.90;99.90;;;;;;5027207;28;20947;-84
2021/06/02 07:24:57;;;;;;;0.80;0.60;;;24.10;99.90;;;;;;5025917;28;20444;-82
2021/06/02 07:27:23;;;;;;;0.80;0.50;;;24.40;99.90;;;;;;5025927;28;20477;-82
2021/06/02 07:29:49;;;;;;;0.80;0.50;;;24.70;99.90;;;;;;5026272;28;20494;-84
2021/06/02 07:32:15;;;;;;;0.80;0.60;;;25.00;99.90;;;;;;5008748;28;20435;-84
2021/06/02 07:34:40;;;;;;;0.80;0.60;;;25.20;99.90;;;;;;5009584;28;20176;-82
2021/06/02 07:37:06;;;;;;;0.80;0.50;;;25.80;99.90;;;;;;5006465;28;20204;-84
2021/06/02 07:39:31;;;;;;;0.80;0.70;;;26.10;99.90;;;;;;5027206;28;20204;-83
2021/06/02 07:41:57;;;;;;;0.90;0.70;;;26.50;98.50;;;;;;5024206;28;20719;-82
2021/06/02 07:44:23;;;;;;;0.90;0.70;;;26.70;94.80;;;;;;5006545;28;20189;-83
2021/06/02 07:46:48;;;;;;;0.80;0.60;;;26.80;94.70;;;;;;5009999;28;20214;-83
2021/06/02 07:49:14;;;;;;;0.80;0.50;;;27.00;91.70;;;;;;5026034;28;20207;-82
2021/06/02 07:51:40;;;;;;;1.00;0.73;;;27.10;89.20;;;;;;5010451;28;20180;-85
2021/06/02 07:54:07;;;;;;;1.10;0.70;;;27.50;84.20;;;;;;5010341;28;20318;-83
2021/06/02 07:56:33;;;;;;;0.80;0.60;;;27.40;81.40;;;;;;5028707;28;20200;-83
2021/06/02 07:58:59;;;;;;;0.90;0.63;;;27.60;81.70;;;;;;5008018;28;20502;-82
2021/06/02 08:01:25;;;;;;;0.87;0.63;;;27.50;75.50;;;;;;5011057;28;20427;-85
2021/06/02 08:03:50;;;;;;;3.13;1.37;;;27.70;73.70;;;;;;5010213;28;20173;-85
2021/06/02 08:06:16;;;;;;;1.10;0.97;;;28.30;78.20;;;;;;5027869;28;20188;-85
2021/06/02 08:08:41;;;;;;;0.90;0.60;;;28.60;74.10;;;;;;5002519;28;20193;-85
2021/06/02 08:11:07;;;;;;;0.90;0.60;;;29.00;78.60;;;;;;4994073;28;20207;-85
2021/06/02 08:13:33;;;;;;;0.90;0.60;;;29.00;66.30;;;;;;5013528;28;20640;-85
2021/06/02 08:15:58;;;;;;;0.90;0.70;;;29.00;65.90;;;;;;5002618;28;20172;-85
2021/06/02 08:18:24;;;;;;;0.90;0.70;;;29.20;59.50;;;;;;4998163;28;20679;-85
2021/06/02 08:20:49;;;;;;;0.90;0.60;;;29.60;59.40;;;;;;4998354;28;20715;-83
2021/06/02 08:23:15;;;;;;;0.90;0.70;;;29.70;58.90;;;;;;4998763;28;20208;-83
2021/06/02 08:25:41;;;;;;;0.90;0.60;;;30.10;60.70;;;;;;4985765;28;20191;-83
2021/06/02 08:28:06;;;;;;;0.90;0.60;;;30.30;58.10;;;;;;4987970;28;20628;-83
2021/06/02 08:30:32;;;;;;;0.90;0.80;;;30.60;59.30;;;;;;5009503;28;20198;-83
2021/06/02 08:32:58;;;;;;;0.90;0.77;;;30.60;55.50;;;;;;4998166;28;20183;-82
2021/06/02 08:35:24;;;;;;;1.00;0.90;;;30.60;54.80;;;;;;5015004;28;20164;-83
2021/06/02 08:37:58;;;;;;;1.10;1.00;;;30.50;54.80;;;;;;4996455;28;20537;-83
2021/06/02 08:40:24;;;;;;;0.90;0.60;;;30.70;56.10;;;;;;5014429;28;20207;-84
2021/06/02 08:42:52;;;;;;;1.00;0.90;;;31.20;59.30;;;;;;5014442;28;20500;-83
2021/06/02 08:45:18;;;;;;;1.00;0.80;;;31.50;57.70;;;;;;5012196;28;20184;-84
2021/06/02 08:47:46;;;;;;;1.10;1.00;;;31.80;55.50;;;;;;4998194;28;20420;-84
2021/06/02 08:50:13;;;;;;;0.90;0.60;;;32.30;53.90;;;;;;4979198;28;20459;-84
2021/06/02 08:52:41;;;;;;;1.50;1.40;;;32.30;53.10;;;;;;5007121;28;20570;-83
2021/06/02 08:55:09;;;;;;;1.00;0.87;;;32.40;53.50;;;;;;5014986;28;20454;-82
2021/06/02 08:57:45;;;;;;;0.90;0.60;;;32.30;50.30;;;;;;4996287;28;20461;-84
2021/06/02 09:00:15;;;;;;;0.90;0.80;;;32.40;50.50;;;;;;4991948;28;20962;-85
2021/06/02 09:02:43;;;;;;;7.60;1.00;;;32.80;53.00;;;;;;4997316;28;20453;-84
2021/06/02 09:05:10;;;;;;;0.90;0.60;;;33.20;52.40;;;;;;4997695;28;20825;-82
2021/06/02 09:07:40;;;;;;;0.90;0.70;;;32.90;49.80;;;;;;4996380;28;20685;-83
2021/06/02 09:10:08;;;;;;;0.93;0.77;;;32.90;51.50;;;;;;5012472;28;20496;-83
2021/06/02 09:12:36;;;;;;;0.90;0.70;;;32.90;48.40;;;;;;5017822;28;20427;-83
2021/06/02 09:25:32;;;;;;;0.93;0.83;;;33.60;49.90;;;;;;4964112;28;20409;-83
2021/06/02 09:35:06;;;;;;;0.90;0.70;;;33.30;46.50;;;;;;5002768;28;20418;-82
2021/06/02 09:38:05;;;;;;;0.90;0.70;;;32.90;45.00;;;;;;5024066;28;20785;-84
2021/06/02 09:40:52;;;;;;;0.90;0.60;;;33.00;45.00;;;;;;5022304;28;20446;-84
2021/06/02 09:43:34;;;;;;;0.90;0.60;;;33.10;44.90;;;;;;4989209;28;20462;-84
2021/06/02 09:46:13;;;;;;;0.90;0.70;;;32.60;44.60;;;;;;4998364;28;20422;-77
2021/06/02 09:48:41;;;;;;;0.90;0.70;;;32.60;47.20;;;;;;5018092;28;20509;-77
2021/06/02 09:51:31;;;;;;;0.90;0.60;;;32.30;42.40;;;;;;5016273;28;20419;-75
2021/06/02 09:53:57;;;;;;;0.90;0.60;;;32.50;45.80;;;;;;5014466;28;20438;-78
2021/06/02 09:56:43;;;;;;;0.90;0.60;;;32.60;43.60;;;;;;5002877;28;20431;-81
2021/06/02 09:59:11;;;;;;;0.80;0.63;;;32.60;44.80;;;;;;5019747;28;20974;-78
2021/06/02 10:02:00;;;;;;;0.90;0.60;;;33.20;45.10;;;;;;5006441;28;20455;-80
2021/06/02 10:04:36;;;;;;;1.00;0.70;;;32.90;43.00;;;;;;5017000;28;20500;-83
2021/06/02 10:07:03;;;;;;;0.90;0.60;;;33.00;41.70;;;;;;5012253;28;20437;-82
2021/06/02 10:09:34;;;;;;;0.90;0.60;;;32.40;40.20;;;;;;5018635;28;20482;-78
2021/06/02 10:12:03;;;;;;;0.80;0.60;;;32.20;41.50;;;;;;5018065;28;20435;-80
2021/06/02 10:14:29;;;;;;;0.90;0.80;;;32.00;42.10;;;;;;5011304;28;20435;-79
2021/06/02 10:16:55;;;;;;;1.37;1.27;;;32.80;42.90;;;;;;5025368;28;20423;-79
2021/06/02 10:19:44;;;;;;;0.87;0.60;;;32.60;41.00;;;;;;5005672;28;20200;-79
2021/06/02 10:22:28;;;;;;;1.17;0.77;;;32.50;41.60;;;;;;5004025;28;20431;-79
2021/06/02 10:24:56;;;;;;;0.90;0.63;;;33.10;42.40;;;;;;5005345;28;20466;-79
2021/06/02 10:27:22;;;;;;;0.90;0.60;;;33.30;40.10;;;;;;5004218;28;20440;-79
2021/06/02 10:29:49;;;;;;;0.90;0.70;;;33.00;41.70;;;;;;4992178;28;20464;-80
2021/06/02 10:32:16;;;;;;;0.90;0.63;;;33.10;39.40;;;;;;5025912;28;20433;-78
2021/06/02 10:34:42;;;;;;;0.90;0.70;;;33.20;39.30;;;;;;5022104;28;20443;-78
2021/06/02 10:37:12;;;;;;;0.90;0.60;;;33.00;38.60;;;;;;5021756;28;20469;-79
2021/06/02 10:39:40;;;;;;;0.90;0.70;;;33.10;40.80;;;;;;5022321;28;20466;-78
2021/06/02 10:42:21;;;;;;;0.90;0.60;;;33.20;41.60;;;;;;5024315;28;20486;-79
2021/06/02 10:45:20;;;;;;;1.00;0.90;;;32.90;39.50;;;;;;5011663;28;20407;-77
2021/06/02 10:47:56;;;;;;;0.80;0.60;;;32.80;36.90;;;;;;5026029;28;20434;-78
2021/06/02 10:50:33;;;;;;;1.00;0.70;;;32.50;38.20;;;;;;5003982;28;20450;-78
2021/06/02 10:53:01;;;;;;;1.17;1.07;;;32.50;39.40;;;;;;5006755;28;20453;-79
2021/06/02 10:55:39;;;;;;;0.90;0.60;;;32.30;37.40;;;;;;5011248;28;20457;-79
2021/06/02 10:58:29;;;;;;;0.90;0.60;;;32.20;35.90;;;;;;5012774;28;20471;-77
2021/06/02 11:01:07;;;;;;;0.90;0.60;;;32.30;37.00;;;;;;5031541;28;20459;-79
2021/06/02 11:03:34;;;;;;;1.10;0.70;;;31.90;36.60;;;;;;5027379;28;20427;-79
2021/06/02 11:06:19;;;;;;;0.90;0.70;;;31.70;37.70;;;;;;5012750;28;20960;-77
2021/06/02 11:08:48;;;;;;;0.80;0.60;;;31.80;36.40;;;;;;5019472;28;20450;-78
2021/06/02 11:11:27;;;;;;;0.83;0.60;;;31.90;38.00;;;;;;5016686;28;20438;-78
2021/06/02 11:14:20;;;;;;;0.80;0.60;;;32.40;38.50;;;;;;5015882;28;20430;-78
2021/06/02 11:16:55;;;;;;;0.80;0.50;;;32.30;39.90;;;;;;5002799;28;20427;-77
2021/06/02 11:19:25;;;;;;;1.37;1.03;;;32.20;37.00;;;;;;5013071;28;20435;-77
2021/06/02 11:21:54;;;;;;;0.80;0.60;;;32.30;38.70;;;;;;5015410;28;20443;-78
2021/06/02 11:24:36;;;;;;;0.90;0.70;;;32.60;37.80;;;;;;4996338;28;20411;-76
2021/06/02 11:27:11;;;;;;;0.87;0.60;;;32.20;35.60;;;;;;5013322;28;20892;-76
2021/06/02 11:29:52;;;;;;;0.90;0.60;;;32.20;36.40;;;;;;5012457;28;20426;-78
2021/06/02 11:32:17;;;;;;;0.80;0.60;;;31.80;38.90;;;;;;5013308;28;20486;-77
2021/06/02 11:34:49;;;;;;;0.90;0.60;;;32.00;38.70;;;;;;4990083;28;21062;-78
2021/06/02 11:37:16;;;;;;;0.90;0.70;;;32.40;35.80;;;;;;5012352;28;20184;-81
2021/06/02 11:39:44;;;;;;;0.90;0.70;;;32.40;35.50;;;;;;5004811;28;20463;-78
2021/06/02 11:42:35;;;;;;;0.90;0.60;;;32.60;37.90;;;;;;5008951;28;20420;-79
2021/06/02 11:45:04;;;;;;;0.90;0.77;;;33.10;40.40;;;;;;4998250;28;20425;-78
2021/06/02 11:47:29;;;;;;;1.43;1.07;;;33.40;37.90;;;;;;4996659;28;20829;-77
2021/06/02 11:50:23;;;;;;;1.10;1.00;;;33.00;36.30;;;;;;4995847;28;20455;-77
2021/06/02 11:52:57;;;;;;;0.90;0.67;;;33.10;38.20;;;;;;5012784;28;20220;-78
2021/06/02 11:55:24;;;;;;;0.90;0.60;;;33.50;38.20;;;;;;5004972;28;20426;-76
2021/06/02 11:57:51;;;;;;;0.90;0.60;;;33.60;38.20;;;;;;4997834;28;20483;-78
2021/06/02 12:00:21;;;;;;;1.47;0.90;;;33.90;39.40;;;;;;4996682;28;20553;-77
2021/06/02 12:03:02;;;;;;;0.90;0.63;;;34.10;39.20;;;;;;5014608;28;20429;-78
2021/06/02 12:05:49;;;;;;;1.17;1.07;;;34.70;40.70;;;;;;5014457;28;20969;-77
2021/06/02 12:08:18;;;;;;;1.07;0.70;;;34.60;38.90;;;;;;5013616;28;20538;-77
2021/06/02 12:10:47;;;;;;;1.00;0.90;;;34.30;38.70;;;;;;4995645;28;20459;-78
2021/06/02 12:13:28;;;;;;;1.03;0.73;;;34.40;36.80;;;;;;4997030;28;20423;-78
2021/06/02 12:15:55;;;;;;;0.90;0.70;;;34.10;36.70;;;;;;5011802;28;20431;-77
2021/06/02 12:18:34;;;;;;;0.90;0.60;;;34.50;38.20;;;;;;4996592;28;20496;-78
2021/06/02 12:21:26;;;;;;;0.90;0.70;;;34.30;36.20;;;;;;5014091;28;20446;-77
2021/06/02 12:23:59;;;;;;;0.90;0.70;;;34.30;36.50;;;;;;4996135;28;20801;-77
2021/06/02 12:26:43;;;;;;;0.90;0.80;;;34.50;36.70;;;;;;4983525;28;20785;-78
2021/06/02 12:29:14;;;;;;;0.90;0.80;;;34.30;39.10;;;;;;5011908;28;20939;-78
2021/06/02 12:31:42;;;;;;;3.47;1.20;;;34.50;39.50;;;;;;5012078;28;20811;-78
2021/06/02 12:34:09;;;;;;;1.00;0.70;;;34.60;36.60;;;;;;5012105;28;20461;-77
2021/06/02 12:36:37;;;;;;;0.90;0.70;;;34.10;37.80;;;;;;5011833;28;20900;-78
2021/06/02 12:39:08;;;;;;;0.90;0.80;;;34.70;37.90;;;;;;5011274;28;20442;-78
2021/06/02 12:41:34;;;;;;;0.97;0.80;;;34.60;36.70;;;;;;5013230;28;20457;-77
2021/06/02 12:44:04;;;;;;;0.90;0.70;;;34.00;35.40;;;;;;5014799;28;20419;-78
2021/06/02 12:46:30;;;;;;;0.90;0.60;;;34.20;35.30;;;;;;5026484;28;20152;-79
2021/06/02 12:48:56;;;;;;;0.90;0.60;;;33.90;34.50;;;;;;5013273;28;20435;-78
2021/06/02 12:51:24;;;;;;;0.90;0.60;;;33.90;36.00;;;;;;5013389;28;20433;-79
2021/06/02 12:53:51;;;;;;;0.90;0.60;;;34.00;38.90;;;;;;5013367;28;20183;-78
2021/06/02 12:56:18;;;;;;;0.90;0.60;;;34.10;38.30;;;;;;5030902;28;20823;-78
2021/06/02 12:58:50;;;;;;;0.90;0.60;;;33.80;37.40;;;;;;5013000;28;21158;-79
2021/06/02 13:01:17;;;;;;;0.90;0.60;;;33.20;36.20;;;;;;5004334;28;20546;-78
2021/06/02 13:03:48;;;;;;;0.80;0.60;;;33.90;38.50;;;;;;5018497;28;20817;-78
2021/06/02 13:06:22;;;;;;;0.90;0.60;;;34.30;39.50;;;;;;5024283;28;20427;-78
2021/06/02 13:08:49;;;;;;;0.90;0.80;;;34.50;37.60;;;;;;5020676;28;20435;-78
2021/06/02 13:11:28;;;;;;;0.90;0.60;;;34.10;38.30;;;;;;5011549;28;20431;-77
2021/06/02 13:13:55;;;;;;;0.90;0.60;;;33.60;38.00;;;;;;5015887;28;20434;-77
2021/06/02 13:16:21;;;;;;;0.90;0.70;;;33.80;37.90;;;;;;5016416;28;20956;-78
2021/06/02 13:19:01;;;;;;;0.90;0.70;;;33.90;37.10;;;;;;5016434;28;20449;-77
2021/06/02 13:21:30;;;;;;;0.90;0.60;;;33.80;39.00;;;;;;5015179;28;20465;-78
2021/06/02 13:24:10;;;;;;;0.90;0.60;;;33.00;38.30;;;;;;4998370;28;20430;-78
2021/06/02 13:26:36;;;;;;;1.00;0.90;;;33.10;40.60;;;;;;5008000;28;20410;-76
2021/06/02 13:29:02;;;;;;;1.00;0.73;;;33.10;36.70;;;;;;5010955;28;20440;-77
2021/06/02 13:31:38;;;;;;;0.90;0.60;;;33.50;40.00;;;;;;4997489;28;20176;-77
2021/06/02 13:34:04;;;;;;;0.90;0.70;;;33.00;38.30;;;;;;5015394;28;20422;-78
2021/06/02 13:36:29;;;;;;;0.90;0.60;;;32.70;36.00;;;;;;4997526;28;20415;-78
2021/06/02 13:39:15;;;;;;;0.90;0.70;;;32.70;36.60;;;;;;5016860;28;20470;-78
2021/06/02 13:41:42;;;;;;;1.00;0.77;;;32.40;36.80;;;;;;4998657;28;20695;-78
2021/06/02 13:44:09;;;;;;;0.90;0.80;;;32.10;36.50;;;;;;5015854;28;20427;-78
2021/06/02 13:46:34;;;;;;;0.90;0.70;;;31.80;36.90;;;;;;5015155;28;20435;-76
2021/06/02 13:49:00;;;;;;;0.90;0.60;;;31.50;38.00;;;;;;5014887;28;20470;-77
2021/06/02 13:51:32;;;;;;;0.80;0.50;;;31.50;38.50;;;;;;5015112;28;20238;-77